DW8947 Weather Reports


Display with metric or nautical units.
time (UTC)temp
F
wind
direction
speed
MPH
gust
MPH
rain 1hr
in
rain 24hr
in
rain mn
in
humidity
%
barometer
mb
20260903081704 55 152 0.0 2.0 0.00 0.14 0.00 93 1005.4
20260903080203 55 152 0.0 2.0 0.00 0.14 0.00 93 1005.4
20260903075704 56 152 0.0 2.0 0.00 0.14 0.00 93 1005.4
20260903074704 56 152 0.0 2.0 0.00 0.14 0.00 93 1005.3
20260903074204 56 152 0.0 2.0 0.00 0.14 0.00 93 1005.4
20260903073203 56 142 0.0 2.0 0.00 0.14 0.00 92 1005.4
20260903072704 56 142 0.0 2.0 0.00 0.14 0.00 92 1005.3
20260903072204 56 142 0.0 2.0 0.00 0.14 0.00 92 1005.3
20260903070704 56 181 1.0 2.0 0.00 0.14 0.00 92 1005.2
20260903065704 56 164 0.0 2.0 0.00 0.14 0.14 93 1005.1
20260903063704 56 150 1.0 1.0 0.00 0.14 0.14 93 1004.9
20260903062704 55 222 0.0 2.0 0.00 0.14 0.14 94 1004.9
20260903062203 55 48 1.0 2.0 0.00 0.14 0.14 94 1004.9
20260903061203 55 150 0.0 2.0 0.00 0.14 0.14 94 1004.9
20260903060704 55 355 0.0 2.0 0.00 0.14 0.14 93 1005.0
20260903055704 55 338 0.0 2.0 0.00 0.14 0.14 93 1005.1
20260903055203 55 338 0.0 2.0 0.00 0.14 0.14 93 1005.1
20260903054204 56 338 0.0 2.0 0.00 0.14 0.14 93 1005.1
20260903051204 56 234 0.0 2.0 0.00 0.14 0.14 92 1005.0
20260903050704 56 8 0.0 2.0 0.00 0.14 0.14 92 1004.9
20260903045203 56 81 0.0 1.0 0.00 0.14 0.14 92 1004.7
20260903044204 57 58 1.0 2.0 0.00 0.14 0.14 92 1004.6
20260903042703 57 138 1.0 2.0 0.00 0.14 0.14 92 1004.6
20260903041704 57 143 1.0 2.0 0.00 0.14 0.14 93 1004.5
20260903041203 57 98 1.0 2.0 0.00 0.14 0.14 93 1004.6
20260903040703 57 163 0.0 2.0 0.00 0.14 0.14 93 1004.5
20260903040203 57 158 0.0 2.0 0.00 0.14 0.14 93 1004.5
20260903035704 57 156 1.0 3.0 0.00 0.14 0.14 93 1004.4
20260903032704 57 81 0.0 2.0 0.00 0.14 0.14 94 1004.2
20260903032204 57 169 1.0 2.0 0.00 0.14 0.14 94 1004.1
20260903030703 57 158 1.0 2.0 0.00 0.14 0.14 94 1003.9
20260903024704 57 178 0.0 2.0 0.00 0.14 0.14 93 1003.5
20260903023703 57 99 0.0 2.0 0.00 0.14 0.14 93 1003.4
20260903022704 57 146 0.0 2.0 0.00 0.14 0.14 93 1003.1
20260903021204 58 178 0.0 2.0 0.00 0.14 0.14 92 1003.1
20260903020704 58 100 0.0 2.0 0.00 0.14 0.14 92 1003.0
20260903014704 58 210 0.0 2.0 0.00 0.14 0.14 92 1002.6
20260903012704 59 159 0.0 2.0 0.00 0.14 0.14 93 1002.4
20260903012204 59 44 1.0 2.0 0.00 0.14 0.14 93 1002.2
20260903011204 59 236 0.0 3.0 0.00 0.14 0.14 93 1002.1
20260903003204 58 159 1.0 3.0 0.00 0.14 0.14 94 1001.7
20260903002204 58 154 1.0 2.0 0.00 0.14 0.14 94 1001.6
20260903001704 58 160 1.0 2.0 0.00 0.14 0.14 94 1001.6
20260902234704 58 160 1.0 2.0 0.06 0.14 0.14 94 1001.7
20260902234205 58 154 1.0 2.0 0.07 0.14 0.14 94 1001.8
20260902233705 58 163 1.0 2.0 0.07 0.14 0.14 94 1001.8
20260902233205 58 155 1.0 3.0 0.08 0.14 0.14 94 1001.9
20260902232705 58 157 1.0 2.0 0.08 0.14 0.14 93 1002.1
20260902231205 58 168 0.0 2.0 0.08 0.13 0.13 93 1002.3
20260902230205 58 173 0.0 2.0 0.07 0.11 0.11 92 1002.5
20260902224705 59 195 0.0 2.0 0.05 0.08 0.08 92 1002.4
20260902222205 60 306 0.0 2.0 0.03 0.05 0.05 90 1002.5
20260902221705 60 306 0.0 2.0 0.03 0.05 0.05 89 1002.5
20260902220205 60 306 0.0 1.0 0.02 0.04 0.04 88 1002.6
20260902215705 61 239 0.0 2.0 0.02 0.04 0.04 88 1002.5
20260902215205 61 241 0.0 2.0 0.02 0.04 0.04 88 1002.6
20260902214705 61 241 0.0 2.0 0.01 0.03 0.03 87 1002.6
20260902213705 62 167 0.0 2.0 0.01 0.03 0.03 85 1002.7
20260902212205 63 179 1.0 2.0 0.00 0.02 0.02 83 1002.7
20260902211705 63 153 1.0 3.0 0.00 0.02 0.02 81 1002.7
20260902211205 64 218 0.0 2.0 0.00 0.02 0.02 81 1002.6
20260902210705 64 300 0.0 2.0 0.00 0.02 0.02 82 1002.5
20260902205205 65 163 1.0 2.0 0.00 0.02 0.02 79 1002.4
20260902204705 64 262 1.0 2.0 0.01 0.02 0.02 80 1002.4
20260902204205 64 240 0.0 2.0 0.01 0.02 0.02 81 1002.5
20260902202705 63 4 0.0 2.0 0.02 0.02 0.02 83 1002.5
20260902202205 63 216 0.0 3.0 0.02 0.02 0.02 84 1002.6
20260902195704 62 146 0.0 1.0 0.02 0.02 0.02 87 1002.8
20260902195204 62 117 0.0 2.0 0.02 0.02 0.02 87 1002.8
20260902192205 66 152 1.0 3.0 0.00 0.00 0.00 68 1002.7
20260902191705 66 162 1.0 3.0 0.00 0.00 0.00 68 1002.7
20260902191205 66 163 1.0 2.0 0.00 0.00 0.00 66 1002.7
20260902190705 67 159 0.0 2.0 0.00 0.00 0.00 70 1002.8
20260902185207 66 237 0.0 2.0 0.00 0.00 0.00 69 1003.0
20260902184705 65 237 0.0 1.0 0.00 0.00 0.00 73 1003.0
20260902184205 64 193 0.0 2.0 0.00 0.00 0.00 74 1003.1
20260902183705 64 160 0.0 2.0 0.00 0.00 0.00 75 1003.1
20260902182205 63 160 0.0 2.0 0.00 0.00 0.00 76 1003.4
20260902181705 63 160 0.0 2.0 0.00 0.00 0.00 77 1003.5
20260902181205 63 160 0.0 2.0 0.00 0.00 0.00 76 1003.5
20260902172705 63 160 0.0 2.0 0.00 0.00 0.00 78 1003.9
20260902172205 63 160 0.0 2.0 0.00 0.00 0.00 77 1003.9
20260902170704 62 154 0.0 2.0 0.00 0.00 0.00 79 1004.1
20260902165705 62 138 0.0 1.0 0.00 0.00 0.00 79 1004.2
20260902165204 62 137 0.0 2.0 0.00 0.00 0.00 79 1004.2
20260902164704 62 137 0.0 2.0 0.00 0.00 0.00 80 1004.2
20260902164204 62 151 0.0 1.0 0.00 0.00 0.00 80 1004.2
20260902163705 62 151 0.0 2.0 0.00 0.00 0.00 80 1004.2
20260902162705 62 169 0.0 2.0 0.00 0.00 0.00 80 1004.4
20260902161705 62 206 0.0 2.0 0.00 0.00 0.00 81 1004.5
20260902160205 61 169 0.0 2.0 0.00 0.00 0.00 82 1004.5
20260902155704 61 169 1.0 2.0 0.00 0.00 0.00 83 1004.5
20260902155204 61 144 0.0 2.0 0.00 0.00 0.00 83 1004.5
20260902153705 61 166 0.0 1.0 0.00 0.00 0.00 83 1004.8
20260902153205 61 166 0.0 2.0 0.00 0.00 0.00 84 1004.8
20260902151705 60 183 0.0 2.0 0.00 0.00 0.00 87 1005.0
20260902151205 59 153 0.0 2.0 0.00 0.00 0.00 86 1005.0
20260902150704 59 153 1.0 2.0 0.00 0.00 0.00 87 1005.1
20260902150205 59 148 0.0 2.0 0.00 0.00 0.00 86 1005.1
20260902144204 60 176 0.0 2.0 0.00 0.00 0.00 86 1005.3
20260902143705 60 176 0.0 2.0 0.00 0.00 0.00 86 1005.4
20260902143205 60 170 0.0 2.0 0.00 0.00 0.00 85 1005.4
20260902142705 60 178 0.0 2.0 0.00 0.00 0.00 85 1005.4
20260902141705 60 204 0.0 2.0 0.00 0.00 0.00 85 1005.4
20260902141205 60 204 0.0 2.0 0.00 0.00 0.00 85 1005.4
20260902140204 60 212 0.0 2.0 0.00 0.00 0.00 85 1005.4
20260902135705 60 208 0.0 1.0 0.00 0.00 0.00 85 1005.4
20260902135205 60 208 0.0 2.0 0.00 0.00 0.00 85 1005.4
20260902134705 60 208 0.0 2.0 0.00 0.00 0.00 85 1005.4
20260902133705 60 208 0.0 2.0 0.00 0.00 0.00 85 1005.4
20260902131705 60 125 0.0 2.0 0.00 0.00 0.00 85 1005.5
20260902131205 60 75 0.0 2.0 0.00 0.00 0.00 85 1005.6
20260902130205 60 109 0.0 2.0 0.00 0.00 0.00 86 1005.7
20260902125205 60 181 0.0 2.0 0.00 0.00 0.00 86 1005.7
20260902123205 60 248 0.0 2.0 0.00 0.00 0.00 87 1005.8
20260902122204 60 171 0.0 2.0 0.00 0.00 0.00 88 1005.8
20260902121705 59 171 0.0 1.0 0.00 0.00 0.00 88 1005.8
20260902121204 59 320 0.0 1.0 0.00 0.00 0.00 88 1005.9
20260902115705 59 85 0.0 2.0 0.00 0.00 0.00 90 1006.0
20260902112204 59 64 0.0 2.0 0.00 0.00 0.00 90 1006.2
20260902111705 59 131 0.0 2.0 0.00 0.00 0.00 90 1006.2
20260902110705 59 117 0.0 2.0 0.00 0.00 0.00 90 1006.2
20260902110205 59 117 0.0 2.0 0.00 0.00 0.00 90 1006.4
20260902105705 59 123 0.0 1.0 0.00 0.00 0.00 90 1006.5
20260902105205 59 123 0.0 2.0 0.00 0.00 0.00 90 1006.4
20260902104205 59 106 0.0 2.0 0.00 0.00 0.00 90 1006.5
20260902103705 59 79 0.0 1.0 0.00 0.00 0.00 90 1006.5
20260902103205 59 140 0.0 2.0 0.00 0.00 0.00 90 1006.4
20260902102704 59 154 0.0 2.0 0.00 0.00 0.00 90 1006.6
20260902101205 59 154 0.0 1.0 0.00 0.00 0.00 90 1006.7
20260902100705 59 153 0.0 2.0 0.00 0.00 0.00 90 1006.7
20260902095205 59 155 0.0 2.0 0.00 0.00 0.00 90 1006.7
20260902094204 59 162 0.0 2.0 0.00 0.00 0.00 89 1006.7
20260902093704 59 162 0.0 2.0 0.00 0.00 0.00 88 1006.7
20260902093204 59 162 0.0 2.0 0.00 0.00 0.00 87 1006.7
20260902085205 60 157 0.0 2.0 0.00 0.00 0.00 86 1007.2